createdAt,value
2019-05-01T00:02:10.014Z,51.74
2019-05-01T00:04:47.194Z,53.70
2019-05-01T00:07:27.529Z,53.29
2019-05-01T00:09:56.889Z,53.63
2019-05-01T00:12:26.434Z,55.61
2019-05-01T00:14:55.829Z,56.41
2019-05-01T00:17:27.774Z,55.62
2019-05-01T00:19:56.624Z,54.38
2019-05-01T00:22:26.105Z,53.44
2019-05-01T00:24:55.478Z,56.55
2019-05-01T00:27:24.958Z,55.37
2019-05-01T00:29:54.355Z,53.11
2019-05-01T00:32:23.727Z,55.25
2019-05-01T00:34:53.095Z,57.29
2019-05-01T00:37:22.475Z,54.40
2019-05-01T00:39:51.912Z,56.02
2019-05-01T00:42:21.321Z,56.49
2019-05-01T00:44:50.700Z,57.82
2019-05-01T00:47:20.057Z,58.01
2019-05-01T00:49:49.428Z,55.49
2019-05-01T00:52:18.815Z,53.91
2019-05-01T00:54:49.911Z,56.93
2019-05-01T00:57:27.251Z,56.23
2019-05-01T01:00:10.195Z,55.29
2019-05-01T01:02:42.224Z,57.72
2019-05-01T01:05:11.634Z,58.51
2019-05-01T01:07:41.114Z,58.06
2019-05-01T01:10:10.605Z,55.17
2019-05-01T01:12:40.069Z,53.86
2019-05-01T01:15:09.415Z,52.50
2019-05-01T01:17:38.825Z,52.31
2019-05-01T01:20:08.248Z,52.00
2019-05-01T01:22:37.684Z,54.02
2019-05-01T01:25:07.573Z,53.09
2019-05-01T01:27:37.109Z,52.67
2019-05-01T01:30:07.569Z,53.77
2019-05-01T01:32:37.010Z,54.90
2019-05-01T01:35:06.756Z,55.08
2019-05-01T01:37:36.095Z,54.39
2019-05-01T01:40:06.346Z,55.42
2019-05-01T01:42:36.453Z,55.08
2019-05-01T01:45:30.739Z,56.14
2019-05-01T01:48:16.619Z,57.35
2019-05-01T01:50:46.547Z,56.09
2019-05-01T01:53:18.318Z,54.76
2019-05-01T01:55:47.919Z,54.18
2019-05-01T01:58:17.706Z,55.78
2019-05-01T02:01:09.196Z,56.70
2019-05-01T02:03:36.663Z,56.76
2019-05-01T02:06:06.090Z,54.58
2019-05-01T02:08:35.517Z,54.45
2019-05-01T02:11:04.934Z,53.90
2019-05-01T02:13:34.349Z,53.42
2019-05-01T02:16:03.710Z,52.85
2019-05-01T02:18:33.125Z,52.23
2019-05-01T02:21:02.584Z,52.18
2019-05-01T02:23:31.936Z,51.99
2019-05-01T02:26:01.439Z,50.73
2019-05-01T02:28:41.681Z,50.99
2019-05-01T02:31:27.851Z,52.85
2019-05-01T02:33:57.285Z,54.19
2019-05-01T02:36:28.011Z,53.48
2019-05-01T02:38:57.882Z,52.41
2019-05-01T02:41:32.482Z,51.58
2019-05-01T02:44:08.173Z,50.93
2019-05-01T02:46:38.070Z,50.89
2019-05-01T02:49:11.085Z,51.29
2019-05-01T02:51:41.621Z,52.04
2019-05-01T02:54:12.280Z,51.29
2019-05-01T02:56:54.585Z,51.20
2019-05-01T02:59:25.245Z,50.52
2019-05-01T03:01:55.586Z,50.07
2019-05-01T03:04:25.257Z,51.74
2019-05-01T03:06:54.927Z,53.41
2019-05-01T03:09:24.703Z,52.51
2019-05-01T03:11:55.274Z,52.44
2019-05-01T03:14:26.920Z,52.96
2019-05-01T03:16:58.723Z,53.27
2019-05-01T03:19:46.380Z,52.72
2019-05-01T03:22:29.188Z,52.55
2019-05-01T03:24:59.167Z,52.89
2019-05-01T03:27:28.848Z,51.74
2019-05-01T03:29:58.408Z,51.21
2019-05-01T03:32:27.996Z,51.91
2019-05-01T03:34:57.557Z,54.46
2019-05-01T03:37:27.119Z,55.53
2019-05-01T03:39:56.681Z,56.19
2019-05-01T03:42:26.262Z,56.23
2019-05-01T03:44:55.830Z,54.53
2019-05-01T03:47:25.409Z,53.39
2019-05-01T03:49:54.971Z,52.79
2019-05-01T03:52:24.542Z,52.63
2019-05-01T03:54:54.226Z,52.72
2019-05-01T03:57:24.202Z,54.20
2019-05-01T03:59:53.891Z,57.12
2019-05-01T04:02:44.009Z,55.25
2019-05-01T04:05:13.570Z,53.99
2019-05-01T04:07:43.252Z,53.18
2019-05-01T04:10:12.939Z,52.98
2019-05-01T04:12:43.023Z,52.69
2019-05-01T04:15:12.887Z,52.36
2019-05-01T04:17:50.280Z,52.04
2019-05-01T04:20:19.914Z,52.03
2019-05-01T04:22:49.775Z,52.31
2019-05-01T04:25:19.377Z,53.48
2019-05-01T04:27:50.737Z,55.40
2019-05-01T04:30:39.401Z,54.95
2019-05-01T04:33:11.681Z,53.81
2019-05-01T04:36:12.750Z,53.30
2019-05-01T04:38:42.676Z,52.75
2019-05-01T04:41:12.454Z,52.92
2019-05-01T04:43:42.009Z,51.92
2019-05-01T04:46:11.586Z,52.10
2019-05-01T04:48:41.200Z,51.73
2019-05-01T04:51:10.715Z,50.86
2019-05-01T04:53:40.400Z,51.26
2019-05-01T04:56:09.987Z,50.92
2019-05-01T04:58:39.589Z,51.23
2019-05-01T05:01:09.361Z,51.77
2019-05-01T05:03:38.927Z,51.68
2019-05-01T05:06:08.982Z,52.74
2019-05-01T05:08:38.535Z,52.93
2019-05-01T05:11:13.399Z,52.94
2019-05-01T05:14:02.143Z,52.85
2019-05-01T05:16:46.564Z,53.14
2019-05-01T05:19:16.256Z,56.46
2019-05-01T05:21:45.820Z,55.52
2019-05-01T05:24:15.419Z,58.66
2019-05-01T05:26:45.110Z,60.19
2019-05-01T05:29:15.702Z,61.34
2019-05-01T05:31:46.151Z,60.54
2019-05-01T05:34:18.235Z,60.93
2019-05-01T05:36:49.920Z,62.97
2019-05-01T05:39:28.686Z,63.95
2019-05-01T05:41:58.752Z,62.07
2019-05-01T05:44:28.622Z,59.67
2019-05-01T05:46:58.196Z,61.41
2019-05-01T05:49:27.986Z,62.12
2019-05-01T05:52:06.662Z,64.36
2019-05-01T05:54:43.122Z,64.91
2019-05-01T05:57:20.001Z,65.22
2019-05-01T06:00:11.220Z,65.30
2019-05-01T06:02:52.788Z,65.00
2019-05-01T06:05:43.575Z,64.61
2019-05-01T06:08:19.549Z,64.29
2019-05-01T06:11:09.200Z,65.14
2019-05-01T06:13:58.917Z,65.99
2019-05-01T06:16:36.072Z,66.09
2019-05-01T06:19:22.849Z,64.38
2019-05-01T06:22:11.606Z,63.29
2019-05-01T06:24:44.703Z,62.77
2019-05-01T06:27:15.087Z,63.59
2019-05-01T06:29:45.039Z,63.29
2019-05-01T06:32:14.639Z,62.02
2019-05-01T06:34:44.529Z,63.77
2019-05-01T06:37:14.088Z,62.50
2019-05-01T06:39:48.145Z,61.88
2019-05-01T06:42:16.916Z,63.72
2019-05-01T06:44:51.960Z,63.16
2019-05-01T06:47:38.135Z,62.94
2019-05-01T06:50:14.985Z,62.54
2019-05-01T06:52:44.697Z,57.67
2019-05-01T06:55:14.476Z,58.33
2019-05-01T06:57:45.660Z,60.71
2019-05-01T07:00:17.420Z,61.47
2019-05-01T07:02:48.129Z,57.17
2019-05-01T07:05:17.739Z,59.18
2019-05-01T07:07:48.250Z,60.95
2019-05-01T07:10:29.798Z,61.41
2019-05-01T07:12:50.152Z,61.80
2019-05-01T07:15:21.843Z,59.36
2019-05-01T07:17:51.275Z,51.82
2019-05-01T07:20:47.419Z,55.57
2019-05-01T07:23:18.701Z,58.78
2019-05-01T07:25:48.544Z,57.20
2019-05-01T07:28:18.218Z,52.68
2019-05-01T07:30:55.113Z,49.00
2019-05-01T07:33:25.837Z,52.83
2019-05-01T07:35:55.566Z,56.44
2019-05-01T07:38:25.099Z,55.72
2019-05-01T07:40:58.817Z,52.96
2019-05-01T07:43:33.341Z,55.93
2019-05-01T07:46:18.449Z,55.05
2019-05-01T07:48:46.729Z,48.53
2019-05-01T07:51:16.405Z,53.41
2019-05-01T07:53:46.419Z,55.66
2019-05-01T07:56:17.228Z,51.00
2019-05-01T07:58:47.477Z,57.20
2019-05-01T08:01:54.526Z,55.26
2019-05-01T08:04:35.791Z,57.47
2019-05-01T08:06:57.073Z,56.81
2019-05-01T08:09:26.672Z,57.56
2019-05-01T08:11:56.307Z,53.08
2019-05-01T08:14:25.870Z,58.22
2019-05-01T08:16:55.516Z,56.73
2019-05-01T08:19:34.687Z,55.15
2019-05-01T08:22:14.324Z,56.23
2019-05-01T08:24:44.076Z,57.33
2019-05-01T08:27:58.154Z,55.96
2019-05-01T08:30:38.695Z,56.23
2019-05-01T08:33:33.339Z,57.91
2019-05-01T08:36:06.787Z,55.68
2019-05-01T08:38:35.443Z,57.61
2019-05-01T08:41:05.117Z,56.66
2019-05-01T08:43:36.032Z,56.97
2019-05-01T08:46:24.938Z,55.31
2019-05-01T08:49:22.944Z,55.27
2019-05-01T08:51:52.630Z,53.90
2019-05-01T08:54:22.281Z,52.41
2019-05-01T08:56:52.936Z,43.88
2019-05-01T08:59:25.649Z,53.43
2019-05-01T09:02:08.419Z,54.91
2019-05-01T09:04:30.317Z,52.66
2019-05-01T09:06:57.769Z,54.53
2019-05-01T09:09:27.507Z,48.35
2019-05-01T09:11:57.201Z,44.69
2019-05-01T09:14:29.935Z,46.70
2019-05-01T09:16:57.642Z,53.65
2019-05-01T09:19:27.072Z,52.14
2019-05-01T09:21:56.432Z,47.14
2019-05-01T09:24:27.989Z,46.59
2019-05-01T09:27:29.482Z,56.42
2019-05-01T09:29:59.991Z,47.80
2019-05-01T09:32:29.332Z,46.20
2019-05-01T09:34:58.782Z,49.66
2019-05-01T09:37:28.563Z,47.22
2019-05-01T09:39:58.027Z,43.71
2019-05-01T09:42:27.454Z,44.25
2019-05-01T09:44:56.857Z,48.56
2019-05-01T09:47:26.850Z,46.91
2019-05-01T09:49:56.320Z,40.78
2019-05-01T09:53:03.247Z,41.01
2019-05-01T09:55:39.889Z,41.33
2019-05-01T09:58:09.247Z,47.43
2019-05-01T10:00:38.763Z,47.58
2019-05-01T10:03:08.209Z,42.39
2019-05-01T10:05:37.953Z,39.79
2019-05-01T10:08:08.612Z,42.01
2019-05-01T10:10:38.043Z,35.65
2019-05-01T10:13:07.804Z,40.29
2019-05-01T10:15:37.174Z,42.44
2019-05-01T10:18:06.601Z,43.80
2019-05-01T10:20:36.000Z,45.17
2019-05-01T10:23:07.762Z,42.16
2019-05-01T10:25:42.912Z,44.70
2019-05-01T10:28:17.790Z,44.44
2019-05-01T10:30:58.090Z,44.00
2019-05-01T10:33:28.967Z,43.85
2019-05-01T10:36:18.810Z,43.53
2019-05-01T10:38:48.070Z,42.05
2019-05-01T10:41:17.433Z,38.81
2019-05-01T10:43:46.904Z,38.79
2019-05-01T10:46:16.321Z,41.58
2019-05-01T10:48:45.694Z,40.38
2019-05-01T10:51:15.063Z,40.82
2019-05-01T10:53:44.425Z,41.79
2019-05-01T10:56:13.858Z,42.95
2019-05-01T10:58:43.308Z,42.27
2019-05-01T11:01:21.343Z,39.02
2019-05-01T11:03:50.701Z,35.28
2019-05-01T11:06:20.154Z,40.69
2019-05-01T11:08:49.523Z,42.96
2019-05-01T11:11:18.867Z,44.35
2019-05-01T11:13:49.322Z,41.57
2019-05-01T11:16:18.674Z,38.87
2019-05-01T11:18:48.042Z,38.42
2019-05-01T11:21:17.398Z,38.60
2019-05-01T11:23:46.790Z,38.74
2019-05-01T11:26:16.138Z,38.82
2019-05-01T11:28:45.507Z,38.62
2019-05-01T11:31:17.238Z,38.92
2019-05-01T11:34:20.457Z,39.01
2019-05-01T11:37:07.614Z,39.17
2019-05-01T11:39:49.571Z,39.26
2019-05-01T11:42:19.008Z,42.07
2019-05-01T11:44:48.363Z,42.52
2019-05-01T11:47:17.692Z,42.25
2019-05-01T11:49:47.034Z,40.44
2019-05-01T11:52:16.442Z,40.07
2019-05-01T11:54:45.797Z,38.98
2019-05-01T11:57:15.159Z,40.64
2019-05-01T11:59:44.536Z,39.97
2019-05-01T12:02:13.932Z,38.91
2019-05-01T12:04:43.294Z,41.19
2019-05-01T12:07:12.656Z,38.87
2019-05-01T12:09:42.098Z,39.57
2019-05-01T12:12:13.895Z,41.08
2019-05-01T12:14:43.258Z,38.34
2019-05-01T12:17:26.939Z,40.34
2019-05-01T12:19:56.324Z,43.22
2019-05-01T12:22:25.689Z,39.57
2019-05-01T12:24:55.056Z,39.38
2019-05-01T12:27:24.398Z,45.72
2019-05-01T12:29:53.813Z,46.26
2019-05-01T12:32:23.231Z,44.42
2019-05-01T12:34:52.576Z,44.98
2019-05-01T12:37:31.577Z,43.22
2019-05-01T12:40:00.933Z,40.79
2019-05-01T12:42:31.133Z,40.54
2019-05-01T12:45:00.529Z,42.99
2019-05-01T12:47:39.854Z,41.19
2019-05-01T12:50:09.732Z,40.97
2019-05-01T12:53:07.077Z,39.87
2019-05-01T12:55:55.549Z,38.55
2019-05-01T12:58:24.886Z,38.15
2019-05-01T13:00:55.006Z,38.56
2019-05-01T13:03:24.483Z,39.12
2019-05-01T13:05:53.838Z,38.32
2019-05-01T13:08:23.202Z,40.68
2019-05-01T13:10:52.702Z,40.46
2019-05-01T13:13:22.245Z,37.89
2019-05-01T13:15:51.591Z,39.24
2019-05-01T13:18:21.021Z,40.41
2019-05-01T13:20:50.360Z,40.39
2019-05-01T13:23:19.721Z,39.15
2019-05-01T13:25:50.262Z,41.73
2019-05-01T13:28:35.859Z,40.95
2019-05-01T13:31:33.647Z,37.88
2019-05-01T13:34:03.068Z,40.42
2019-05-01T13:36:32.414Z,41.67
2019-05-01T13:39:01.795Z,40.35
2019-05-01T13:41:31.212Z,38.91
2019-05-01T13:44:00.563Z,41.51
2019-05-01T13:46:30.018Z,41.99
2019-05-01T13:48:59.522Z,42.50
2019-05-01T13:51:28.934Z,43.18
2019-05-01T13:53:58.301Z,43.82
2019-05-01T13:56:27.635Z,45.87
2019-05-01T13:58:57.056Z,38.05
2019-05-01T14:01:26.791Z,42.51
2019-05-01T14:03:56.140Z,40.17
2019-05-01T14:06:25.555Z,38.60
2019-05-01T14:08:54.922Z,38.31
2019-05-01T14:11:24.274Z,39.07
2019-05-01T14:13:53.669Z,41.20
2019-05-01T14:16:23.115Z,40.34
2019-05-01T14:18:52.568Z,41.91
2019-05-01T14:21:33.157Z,45.39
2019-05-01T14:24:20.560Z,45.73
2019-05-01T14:26:49.909Z,40.67
2019-05-01T14:29:19.273Z,47.79
2019-05-01T14:31:48.678Z,48.74
2019-05-01T14:34:18.020Z,46.14
2019-05-01T14:36:47.374Z,38.89
2019-05-01T14:39:16.807Z,45.20
2019-05-01T14:41:46.139Z,38.42
2019-05-01T14:44:15.526Z,37.08
2019-05-01T14:46:44.868Z,37.30
2019-05-01T14:49:14.313Z,41.84
2019-05-01T14:51:43.691Z,39.56
2019-05-01T14:54:13.101Z,44.18
2019-05-01T14:56:43.420Z,42.42
2019-05-01T14:59:13.021Z,44.14
2019-05-01T15:01:42.444Z,38.53
2019-05-01T15:04:11.887Z,40.50
2019-05-01T15:06:41.363Z,40.84
2019-05-01T15:09:10.991Z,36.92
2019-05-01T15:11:41.718Z,35.86
2019-05-01T15:14:28.686Z,38.87
2019-05-01T15:17:17.438Z,39.96
2019-05-01T15:19:55.184Z,40.81
2019-05-01T15:22:24.822Z,35.88
2019-05-01T15:24:54.248Z,33.45
2019-05-01T15:27:24.080Z,35.85
2019-05-01T15:29:53.597Z,35.57
2019-05-01T15:32:23.197Z,37.00
2019-05-01T15:34:52.740Z,36.93
2019-05-01T15:37:22.298Z,36.65
2019-05-01T15:39:59.415Z,35.93
2019-05-01T15:42:42.663Z,38.03
2019-05-01T15:45:12.874Z,34.59
2019-05-01T15:47:42.385Z,35.99
2019-05-01T15:50:11.988Z,37.52
2019-05-01T15:52:41.477Z,37.38
2019-05-01T15:55:11.217Z,37.85
2019-05-01T15:57:40.686Z,38.30
2019-05-01T16:00:12.111Z,35.57
2019-05-01T16:02:41.525Z,37.23
2019-05-01T16:05:11.117Z,36.73
2019-05-01T16:07:42.231Z,37.14
2019-05-01T16:10:14.128Z,38.02
2019-05-01T16:13:02.492Z,37.33
2019-05-01T16:15:33.607Z,37.14
2019-05-01T16:18:03.683Z,35.96
2019-05-01T16:20:33.212Z,36.79
2019-05-01T16:23:02.740Z,35.66
2019-05-01T16:25:32.311Z,36.23
2019-05-01T16:28:01.840Z,36.21
2019-05-01T16:30:31.317Z,36.24
2019-05-01T16:33:00.829Z,36.15
2019-05-01T16:35:30.381Z,36.05
2019-05-01T16:38:02.011Z,35.66
2019-05-01T16:40:45.154Z,35.31
2019-05-01T16:43:15.052Z,35.69
2019-05-01T16:45:44.576Z,35.16
2019-05-01T16:48:14.032Z,34.96
2019-05-01T16:50:43.556Z,35.11
2019-05-01T16:53:13.135Z,35.76
2019-05-01T16:55:43.048Z,35.02
2019-05-01T16:58:15.022Z,34.90
2019-05-01T17:01:04.187Z,34.94
2019-05-01T17:03:44.229Z,34.83
2019-05-01T17:06:18.568Z,35.11
2019-05-01T17:09:00.388Z,34.76
2019-05-01T17:11:31.877Z,34.89
2019-05-01T17:14:01.454Z,35.34
2019-05-01T17:16:31.084Z,34.76
2019-05-01T17:19:00.579Z,34.62
2019-05-01T17:21:30.049Z,34.59
2019-05-01T17:23:59.651Z,34.56
2019-05-01T17:26:29.226Z,35.03
2019-05-01T17:28:58.687Z,35.26
2019-05-01T17:31:28.520Z,35.18
2019-05-01T17:33:58.037Z,35.67
2019-05-01T17:36:27.565Z,35.81
2019-05-01T17:38:57.022Z,35.90
2019-05-01T17:41:27.450Z,35.11
2019-05-01T17:43:57.808Z,34.96
2019-05-01T17:46:27.242Z,34.86
2019-05-01T17:48:56.758Z,34.64
2019-05-01T17:51:26.192Z,34.71
2019-05-01T17:53:55.714Z,34.68
2019-05-01T17:56:28.286Z,34.75
2019-05-01T17:58:59.285Z,34.71
2019-05-01T18:01:49.551Z,34.77
2019-05-01T18:04:33.318Z,34.71
2019-05-01T18:07:02.933Z,34.78
2019-05-01T18:09:32.444Z,35.35
2019-05-01T18:12:07.224Z,35.13
2019-05-01T18:14:36.724Z,35.12
2019-05-01T18:17:06.350Z,35.34
2019-05-01T18:19:35.833Z,35.39
2019-05-01T18:22:26.904Z,35.47
2019-05-01T18:25:14.021Z,35.63
2019-05-01T18:28:01.800Z,35.81
2019-05-01T18:30:36.174Z,35.83
2019-05-01T18:33:05.904Z,36.07
2019-05-01T18:35:35.618Z,36.05
2019-05-01T18:38:14.745Z,36.24
2019-05-01T18:40:49.761Z,36.41
2019-05-01T18:43:19.245Z,36.73
2019-05-01T18:45:50.917Z,37.01
2019-05-01T18:48:20.984Z,37.21
2019-05-01T18:50:54.671Z,37.42
2019-05-01T18:53:21.973Z,37.61
2019-05-01T18:55:51.534Z,37.74
2019-05-01T18:58:20.972Z,38.07
2019-05-01T19:00:50.907Z,38.35
2019-05-01T19:03:22.410Z,38.41
2019-05-01T19:05:51.748Z,38.61
2019-05-01T19:08:21.253Z,38.71
2019-05-01T19:10:50.778Z,38.74
2019-05-01T19:13:20.708Z,39.04
2019-05-01T19:15:50.317Z,39.18
2019-05-01T19:18:19.858Z,39.20
2019-05-01T19:20:59.269Z,39.25
2019-05-01T19:23:22.113Z,39.26
2019-05-01T19:25:51.931Z,39.51
2019-05-01T19:28:22.559Z,39.73
2019-05-01T19:30:52.107Z,39.89
2019-05-01T19:33:21.635Z,40.07
2019-05-01T19:35:51.155Z,40.15
2019-05-01T19:38:21.493Z,40.24
2019-05-01T19:40:50.948Z,40.36
2019-05-01T19:43:20.518Z,40.56
2019-05-01T19:45:49.968Z,40.58
2019-05-01T19:48:19.518Z,40.63
2019-05-01T19:50:49.640Z,40.97
2019-05-01T19:53:19.208Z,41.05
2019-05-01T19:55:48.989Z,41.42
2019-05-01T19:58:18.511Z,41.62
2019-05-01T20:00:55.889Z,41.67
2019-05-01T20:03:26.016Z,41.94
2019-05-01T20:05:59.678Z,42.68
2019-05-01T20:08:28.430Z,43.23
2019-05-01T20:10:57.979Z,43.24
2019-05-01T20:13:27.522Z,43.01
2019-05-01T20:15:56.987Z,43.77
2019-05-01T20:18:26.535Z,43.33
2019-05-01T20:20:55.994Z,43.45
2019-05-01T20:23:31.574Z,43.44
2019-05-01T20:25:58.626Z,43.57
2019-05-01T20:28:28.465Z,43.71
2019-05-01T20:30:58.202Z,43.76
2019-05-01T20:33:27.747Z,43.60
2019-05-01T20:36:00.536Z,43.70
2019-05-01T20:38:28.654Z,43.88
2019-05-01T20:40:58.259Z,44.04
2019-05-01T20:43:27.739Z,44.15
2019-05-01T20:45:57.301Z,44.28
2019-05-01T20:48:26.798Z,44.42
2019-05-01T20:50:56.313Z,44.46
2019-05-01T20:53:26.967Z,44.48
2019-05-01T20:56:03.008Z,44.68
2019-05-01T20:58:38.451Z,44.63
2019-05-01T21:01:07.939Z,44.64
2019-05-01T21:03:42.674Z,44.81
2019-05-01T21:06:24.337Z,45.14
2019-05-01T21:09:13.853Z,45.41
2019-05-01T21:11:47.389Z,45.64
2019-05-01T21:14:22.629Z,46.14
2019-05-01T21:16:49.388Z,46.01
2019-05-01T21:19:18.847Z,45.88
2019-05-01T21:21:48.291Z,45.72
2019-05-01T21:24:17.823Z,45.93
2019-05-01T21:26:47.338Z,46.05
2019-05-01T21:29:16.820Z,46.73
2019-05-01T21:31:46.329Z,46.88
2019-05-01T21:34:15.815Z,46.76
2019-05-01T21:36:47.366Z,46.77
2019-05-01T21:39:17.958Z,46.72
2019-05-01T21:41:47.656Z,46.77
2019-05-01T21:44:17.218Z,46.77
2019-05-01T21:46:46.840Z,46.81
2019-05-01T21:49:16.402Z,46.95
2019-05-01T21:51:46.354Z,46.96
2019-05-01T21:54:22.193Z,46.96
2019-05-01T21:56:51.694Z,46.97
2019-05-01T21:59:21.100Z,46.92
2019-05-01T22:01:50.644Z,46.86
2019-05-01T22:04:20.084Z,46.99
2019-05-01T22:06:51.986Z,47.18
2019-05-01T22:09:21.599Z,47.27
2019-05-01T22:11:51.030Z,47.37
2019-05-01T22:14:38.400Z,47.44
2019-05-01T22:17:14.013Z,47.70
2019-05-01T22:19:43.370Z,47.99
2019-05-01T22:22:19.279Z,48.11
2019-05-01T22:24:59.618Z,48.46
2019-05-01T22:27:34.835Z,49.32
2019-05-01T22:30:13.794Z,49.53
2019-05-01T22:32:46.951Z,49.53
2019-05-01T22:35:18.935Z,49.91
2019-05-01T22:37:48.395Z,50.04
2019-05-01T22:40:20.833Z,50.60
2019-05-01T22:42:50.182Z,49.87
2019-05-01T22:45:22.258Z,49.26
2019-05-01T22:47:52.200Z,49.08
2019-05-01T22:50:21.737Z,49.10
2019-05-01T22:52:51.286Z,49.39
2019-05-01T22:55:25.223Z,49.41
2019-05-01T22:57:51.723Z,48.80
2019-05-01T23:00:33.517Z,48.56
2019-05-01T23:03:05.568Z,47.77
2019-05-01T23:05:35.435Z,48.47
2019-05-01T23:08:04.881Z,49.00
2019-05-01T23:10:34.589Z,49.60
2019-05-01T23:13:04.131Z,49.23
2019-05-01T23:15:33.918Z,49.39
2019-05-01T23:18:03.414Z,48.82
2019-05-01T23:20:34.720Z,48.85
2019-05-01T23:23:03.888Z,49.19
2019-05-01T23:25:36.559Z,49.35
2019-05-01T23:28:06.075Z,49.52
2019-05-01T23:30:35.558Z,49.83
2019-05-01T23:33:04.999Z,49.93
2019-05-01T23:35:34.433Z,49.84
2019-05-01T23:38:03.896Z,49.68
2019-05-01T23:40:33.322Z,49.66
2019-05-01T23:43:02.703Z,49.80
2019-05-01T23:45:32.030Z,50.54
2019-05-01T23:48:01.433Z,50.97
2019-05-01T23:50:30.870Z,50.33
2019-05-01T23:53:00.233Z,49.87
2019-05-01T23:55:29.577Z,49.48
2019-05-01T23:57:59.023Z,49.58
